createdAt,value
2016-07-23T00:00:05.784Z,0
2016-07-23T00:01:06.474Z,0
2016-07-23T00:02:05.068Z,0
2016-07-23T00:03:05.763Z,0
2016-07-23T00:04:05.045Z,0
2016-07-23T00:05:05.742Z,0
2016-07-23T00:06:05.024Z,0
2016-07-23T00:07:06.436Z,0
2016-07-23T00:08:05.005Z,0
2016-07-23T00:09:05.708Z,0
2016-07-23T00:10:05.703Z,0
2016-07-23T00:11:04.992Z,0
2016-07-23T00:12:05.682Z,0
2016-07-23T00:13:05.681Z,0
2016-07-23T00:14:06.385Z,0
2016-07-23T00:15:04.955Z,0
2016-07-23T00:16:04.987Z,0
2016-07-23T00:17:05.649Z,0
2016-07-23T00:18:05.677Z,0
2016-07-23T00:19:04.923Z,0
2016-07-23T00:20:04.911Z,0
2016-07-23T00:21:06.325Z,0
2016-07-23T00:22:04.903Z,0
2016-07-23T00:23:04.890Z,0
2016-07-23T00:24:05.604Z,0
2016-07-23T00:25:06.998Z,0
2016-07-23T00:26:05.585Z,0
2016-07-23T00:27:04.858Z,0
2016-07-23T00:28:05.554Z,0
2016-07-23T00:29:06.267Z,0
2016-07-23T00:30:05.557Z,0
2016-07-23T00:31:05.541Z,0
2016-07-23T00:32:06.243Z,0
2016-07-23T00:33:06.226Z,0
2016-07-23T00:34:04.814Z,0
2016-07-23T00:35:05.499Z,0
2016-07-23T00:36:04.082Z,0
2016-07-23T00:37:05.493Z,0
2016-07-23T00:38:04.772Z,0
2016-07-23T00:39:05.478Z,0
2016-07-23T00:40:04.758Z,0
2016-07-23T00:41:05.659Z,0
2016-07-23T00:42:04.746Z,0
2016-07-23T00:43:06.139Z,0
2016-07-23T00:44:05.432Z,0
2016-07-23T00:45:04.014Z,0
2016-07-23T00:46:04.707Z,0
2016-07-23T00:47:04.000Z,0
2016-07-23T00:48:05.399Z,0
2016-07-23T00:49:05.396Z,0
2016-07-23T00:50:05.389Z,0
2016-07-23T00:51:04.667Z,0
2016-07-23T00:52:04.667Z,0
2016-07-23T00:53:04.655Z,0
2016-07-23T00:54:06.063Z,0
2016-07-23T00:55:05.340Z,0
2016-07-23T00:56:03.915Z,0
2016-07-23T00:57:04.621Z,0
2016-07-23T00:58:05.317Z,0
2016-07-23T00:59:06.731Z,0
2016-07-23T01:00:04.601Z,0
2016-07-23T01:01:04.583Z,0
2016-07-23T01:02:05.286Z,0
2016-07-23T01:03:05.278Z,0
2016-07-23T01:04:03.854Z,0
2016-07-23T01:05:05.261Z,0
2016-07-23T01:06:05.262Z,0
2016-07-23T01:07:05.959Z,0
2016-07-23T01:08:04.533Z,0
2016-07-23T01:09:04.518Z,0
2016-07-23T01:10:05.225Z,0
2016-07-23T01:11:05.216Z,0
2016-07-23T01:12:04.508Z,0
2016-07-23T01:13:05.905Z,0
2016-07-23T01:14:04.483Z,0
2016-07-23T01:15:04.471Z,0
2016-07-23T01:16:06.584Z,0
2016-07-23T01:17:05.166Z,0
2016-07-23T01:18:05.163Z,0
2016-07-23T01:19:06.573Z,0
2016-07-23T01:20:05.137Z,0
2016-07-23T01:21:05.133Z,0
2016-07-23T01:22:04.431Z,0
2016-07-23T01:23:05.819Z,0
2016-07-23T01:24:04.405Z,0
2016-07-23T01:25:03.681Z,0
2016-07-23T01:26:05.804Z,0
2016-07-23T01:27:05.793Z,0
2016-07-23T01:28:05.080Z,0
2016-07-23T01:29:04.362Z,0
2016-07-23T01:30:04.351Z,0
2016-07-23T01:31:05.757Z,0
2016-07-23T01:32:04.351Z,0
2016-07-23T01:33:03.691Z,0
2016-07-23T01:34:04.328Z,0
2016-07-23T01:35:05.022Z,0
2016-07-23T01:36:04.303Z,0
2016-07-23T01:37:05.003Z,0
2016-07-23T01:38:03.584Z,0
2016-07-23T01:39:03.568Z,0
2016-07-23T01:40:04.977Z,0
2016-07-23T01:41:04.966Z,0
2016-07-23T01:42:03.553Z,0
2016-07-23T01:43:03.541Z,0
2016-07-23T01:44:04.947Z,0
2016-07-23T01:45:05.642Z,0
2016-07-23T01:46:03.560Z,0
2016-07-23T01:47:04.224Z,0
2016-07-23T01:48:04.198Z,0
2016-07-23T01:49:04.915Z,0
2016-07-23T01:50:04.200Z,0
2016-07-23T01:51:05.596Z,0
2016-07-23T01:52:05.589Z,0
2016-07-23T01:53:06.280Z,0
2016-07-23T01:54:04.867Z,0
2016-07-23T01:55:04.152Z,0
2016-07-23T01:56:03.440Z,0
2016-07-23T01:57:04.839Z,0
2016-07-23T01:58:03.416Z,0
2016-07-23T01:59:03.411Z,0
2016-07-23T02:00:04.104Z,0
2016-07-23T02:01:05.520Z,0
2016-07-23T02:02:04.800Z,0
2016-07-23T02:03:06.203Z,0
2016-07-23T02:04:04.078Z,0
2016-07-23T02:05:05.479Z,0
2016-07-23T02:06:05.484Z,0
2016-07-23T02:07:04.053Z,0
2016-07-23T02:08:05.455Z,0
2016-07-23T02:09:05.455Z,0
2016-07-23T02:10:03.322Z,0
2016-07-23T02:11:03.308Z,0
2016-07-23T02:12:04.027Z,0
2016-07-23T02:13:03.305Z,0
2016-07-23T02:14:05.504Z,0
2016-07-23T02:15:05.412Z,0
2016-07-23T02:16:03.980Z,0
2016-07-23T02:17:03.970Z,0
2016-07-23T02:18:04.668Z,0
2016-07-23T02:19:04.672Z,0
2016-07-23T02:20:03.237Z,0
2016-07-23T02:21:03.232Z,0
2016-07-23T02:22:03.950Z,0
2016-07-23T02:23:04.626Z,0
2016-07-23T02:24:03.915Z,0
2016-07-23T02:25:03.910Z,0
2016-07-23T02:26:03.193Z,0
2016-07-23T02:27:04.593Z,0
2016-07-23T02:28:05.999Z,0
2016-07-23T02:29:04.605Z,0
2016-07-23T02:30:03.859Z,0
2016-07-23T02:31:05.268Z,0
2016-07-23T02:32:04.550Z,0
2016-07-23T02:33:05.250Z,0
2016-07-23T02:34:04.553Z,0
2016-07-23T02:35:03.820Z,0
2016-07-23T02:36:04.534Z,0
2016-07-23T02:37:03.803Z,0
2016-07-23T02:38:03.795Z,0
2016-07-23T02:39:05.199Z,0
2016-07-23T02:40:03.066Z,0
2016-07-23T02:41:04.682Z,0
2016-07-23T02:42:05.185Z,0
2016-07-23T02:43:03.754Z,0
2016-07-23T02:44:04.463Z,0
2016-07-23T02:45:03.031Z,0
2016-07-23T02:46:03.021Z,0
2016-07-23T02:47:03.725Z,0
2016-07-23T02:48:03.704Z,0
2016-07-23T02:49:03.707Z,0
2016-07-23T02:50:04.388Z,0
2016-07-23T02:51:05.095Z,0
2016-07-23T02:52:02.977Z,0
2016-07-23T02:53:04.384Z,0
2016-07-23T02:54:03.657Z,0
2016-07-23T02:55:03.660Z,0
2016-07-23T02:56:03.648Z,0
2016-07-23T02:57:05.779Z,0
2016-07-23T02:58:04.342Z,0
2016-07-23T02:59:02.916Z,0
2016-07-23T03:00:04.345Z,0
2016-07-23T03:01:04.327Z,0
2016-07-23T03:02:05.008Z,0
2016-07-23T03:03:03.585Z,0
2016-07-23T03:04:05.004Z,0
2016-07-23T03:05:04.278Z,0
2016-07-23T03:06:04.263Z,0
2016-07-23T03:07:02.840Z,0
2016-07-23T03:08:02.827Z,0
2016-07-23T03:09:04.255Z,0
2016-07-23T03:10:04.235Z,0
2016-07-23T03:11:04.223Z,0
2016-07-23T03:12:03.504Z,0
2016-07-23T03:13:02.789Z,0
2016-07-23T03:14:04.195Z,0
2016-07-23T03:15:02.772Z,0
2016-07-23T03:16:03.483Z,0
2016-07-23T03:17:03.478Z,0
2016-07-23T03:18:03.454Z,0
2016-07-23T03:19:02.740Z,0
2016-07-23T03:20:03.434Z,0
2016-07-23T03:21:03.432Z,0
2016-07-23T03:22:04.177Z,0
2016-07-23T03:23:04.831Z,0
2016-07-23T03:24:04.122Z,0
2016-07-23T03:25:02.699Z,0
2016-07-23T03:26:04.808Z,0
2016-07-23T03:27:04.082Z,0
2016-07-23T03:28:04.794Z,0
2016-07-23T03:29:02.659Z,0
2016-07-23T03:30:04.119Z,0
2016-07-23T03:31:03.340Z,0
2016-07-23T03:32:04.745Z,0
2016-07-23T03:33:03.331Z,0
2016-07-23T03:34:03.335Z,0
2016-07-23T03:35:02.599Z,0
2016-07-23T03:36:03.305Z,0
2016-07-23T03:37:02.598Z,0
2016-07-23T03:38:04.694Z,0
2016-07-23T03:39:02.571Z,0
2016-07-23T03:40:03.276Z,0
2016-07-23T03:41:03.264Z,0
2016-07-23T03:42:03.248Z,0
2016-07-23T03:43:03.238Z,0
2016-07-23T03:44:02.534Z,0
2016-07-23T03:45:03.931Z,0
2016-07-23T03:46:03.930Z,0
2016-07-23T03:47:04.631Z,0
2016-07-23T03:48:02.499Z,5
2016-07-23T03:49:03.895Z,5
2016-07-23T03:50:02.473Z,5
2016-07-23T03:51:02.473Z,5
2016-07-23T03:52:03.868Z,5
2016-07-23T03:53:03.868Z,5
2016-07-23T03:54:03.152Z,5
2016-07-23T03:55:04.556Z,5
2016-07-23T03:56:03.139Z,5
2016-07-23T03:57:03.826Z,5
2016-07-23T03:58:02.413Z,5
2016-07-23T03:59:03.815Z,5
2016-07-23T04:00:03.096Z,5
2016-07-23T04:01:03.100Z,10
2016-07-23T04:02:03.783Z,10
2016-07-23T04:03:03.794Z,10
2016-07-23T04:04:03.764Z,10
2016-07-23T04:05:03.065Z,10
2016-07-23T04:06:03.047Z,10
2016-07-23T04:07:03.037Z,10
2016-07-23T04:08:02.344Z,10
2016-07-23T04:09:03.735Z,10
2016-07-23T04:10:03.730Z,10
2016-07-23T04:11:03.712Z,10
2016-07-23T04:12:03.697Z,10
2016-07-23T04:13:03.687Z,15
2016-07-23T04:14:03.687Z,15
2016-07-23T04:15:02.979Z,15
2016-07-23T04:16:02.969Z,15
2016-07-23T04:17:02.258Z,15
2016-07-23T04:18:03.653Z,15
2016-07-23T04:19:04.352Z,15
2016-07-23T04:20:03.632Z,15
2016-07-23T04:21:03.626Z,15
2016-07-23T04:22:02.206Z,15
2016-07-23T04:23:04.316Z,20
2016-07-23T04:24:02.891Z,20
2016-07-23T04:25:02.883Z,20
2016-07-23T04:26:02.183Z,20
2016-07-23T04:27:03.580Z,20
2016-07-23T04:28:02.161Z,20
2016-07-23T04:29:02.149Z,20
2016-07-23T04:30:03.550Z,20
2016-07-23T04:31:02.130Z,25
2016-07-23T04:32:04.238Z,25
2016-07-23T04:33:02.814Z,25
2016-07-23T04:34:02.808Z,25
2016-07-23T04:35:04.218Z,25
2016-07-23T04:36:02.787Z,25
2016-07-23T04:37:04.200Z,30
2016-07-23T04:38:02.775Z,30
2016-07-23T04:39:03.474Z,30
2016-07-23T04:40:03.459Z,30
2016-07-23T04:41:02.949Z,30
2016-07-23T04:42:02.740Z,30
2016-07-23T04:43:02.726Z,35
2016-07-23T04:44:02.724Z,35
2016-07-23T04:45:02.715Z,35
2016-07-23T04:46:02.804Z,35
2016-07-23T04:47:03.405Z,35
2016-07-23T04:48:02.696Z,35
2016-07-23T04:49:02.678Z,40
2016-07-23T04:50:04.083Z,40
2016-07-23T04:51:04.780Z,40
2016-07-23T04:52:04.074Z,40
2016-07-23T04:53:03.368Z,40
2016-07-23T04:54:03.343Z,45
2016-07-23T04:55:02.633Z,45
2016-07-23T04:56:02.619Z,45
2016-07-23T04:57:02.619Z,45
2016-07-23T04:58:03.313Z,45
2016-07-23T04:59:02.595Z,45
2016-07-23T05:00:01.902Z,45
2016-07-23T05:01:03.284Z,45
2016-07-23T05:02:01.869Z,45
2016-07-23T05:03:01.865Z,45
2016-07-23T05:04:02.599Z,45
2016-07-23T05:05:03.258Z,45
2016-07-23T05:06:02.543Z,45
2016-07-23T05:07:03.244Z,45
2016-07-23T05:08:02.520Z,45
2016-07-23T05:09:03.215Z,45
2016-07-23T05:10:02.505Z,50
2016-07-23T05:11:03.209Z,50
2016-07-23T05:12:01.776Z,50
2016-07-23T05:13:02.483Z,50
2016-07-23T05:14:02.474Z,50
2016-07-23T05:15:02.466Z,50
2016-07-23T05:16:03.879Z,50
2016-07-23T05:17:03.155Z,50
2016-07-23T05:18:02.438Z,50
2016-07-23T05:19:02.431Z,50
2016-07-23T05:20:03.125Z,50
2016-07-23T05:21:01.705Z,50
2016-07-23T05:22:03.823Z,50
2016-07-23T05:23:02.400Z,50
2016-07-23T05:24:02.401Z,50
2016-07-23T05:25:03.084Z,50
2016-07-23T05:26:01.671Z,50
2016-07-23T05:27:03.072Z,55
2016-07-23T05:28:01.643Z,55
2016-07-23T05:29:02.350Z,55
2016-07-23T05:30:03.045Z,55
2016-07-23T05:31:03.040Z,55
2016-07-23T05:32:03.029Z,55
2016-07-23T05:33:03.021Z,60
2016-07-23T05:34:03.017Z,60
2016-07-23T05:35:01.591Z,60
2016-07-23T05:36:02.997Z,60
2016-07-23T05:37:01.576Z,65
2016-07-23T05:38:02.983Z,65
2016-07-23T05:39:02.263Z,65
2016-07-23T05:40:02.313Z,70
2016-07-23T05:41:02.248Z,70
2016-07-23T05:42:01.537Z,70
2016-07-23T05:43:02.239Z,75
2016-07-23T05:44:02.220Z,75
2016-07-23T05:45:02.926Z,75
2016-07-23T05:46:03.631Z,80
2016-07-23T05:47:02.958Z,80
2016-07-23T05:48:02.193Z,85
2016-07-23T05:49:02.918Z,85
2016-07-23T05:50:02.892Z,85
2016-07-23T05:51:02.180Z,90
2016-07-23T05:52:02.866Z,90
2016-07-23T05:53:02.151Z,90
2016-07-23T05:54:03.567Z,95
2016-07-23T05:55:02.138Z,95
2016-07-23T05:56:02.898Z,95
2016-07-23T05:57:02.823Z,95
2016-07-23T05:58:03.529Z,95
2016-07-23T05:59:02.094Z,95
2016-07-23T06:00:02.097Z,100
2016-07-23T06:01:01.379Z,100
2016-07-23T06:02:02.801Z,100
2016-07-23T06:03:02.072Z,100
2016-07-23T06:04:03.479Z,100
2016-07-23T06:05:02.067Z,105
2016-07-23T06:06:01.334Z,105
2016-07-23T06:07:02.760Z,105
2016-07-23T06:08:02.744Z,110
2016-07-23T06:09:02.723Z,110
2016-07-23T06:10:01.314Z,110
2016-07-23T06:11:02.004Z,115
2016-07-23T06:12:02.703Z,120
2016-07-23T06:13:02.700Z,120
2016-07-23T06:14:01.981Z,125
2016-07-23T06:15:02.690Z,130
2016-07-23T06:16:01.967Z,135
2016-07-23T06:17:01.259Z,135
2016-07-23T06:18:01.254Z,140
2016-07-23T06:19:02.651Z,145
2016-07-23T06:20:03.349Z,145
2016-07-23T06:21:01.991Z,150
2016-07-23T06:22:01.925Z,150
2016-07-23T06:23:02.619Z,150
2016-07-23T06:24:02.613Z,150
2016-07-23T06:25:02.002Z,155
2016-07-23T06:26:02.603Z,155
2016-07-23T06:27:01.185Z,160
2016-07-23T06:28:02.584Z,160
2016-07-23T06:29:01.888Z,165
2016-07-23T06:30:01.153Z,165
2016-07-23T06:31:01.850Z,165
2016-07-23T06:32:01.847Z,170
2016-07-23T06:33:02.546Z,170
2016-07-23T06:34:03.248Z,175
2016-07-23T06:35:02.528Z,180
2016-07-23T06:36:01.116Z,180
2016-07-23T06:37:01.812Z,185
2016-07-23T06:38:02.514Z,185
2016-07-23T06:39:03.206Z,190
2016-07-23T06:40:02.509Z,195
2016-07-23T06:41:01.981Z,200
2016-07-23T06:42:03.187Z,200
2016-07-23T06:43:03.179Z,205
2016-07-23T06:44:02.465Z,210
2016-07-23T06:45:02.462Z,210
2016-07-23T06:46:01.757Z,215
2016-07-23T06:47:01.752Z,220
2016-07-23T06:48:01.727Z,220
2016-07-23T06:49:03.388Z,220
2016-07-23T06:50:02.437Z,225
2016-07-23T06:51:01.721Z,225
2016-07-23T06:52:00.996Z,230
2016-07-23T06:53:02.408Z,230
2016-07-23T06:54:02.399Z,235
2016-07-23T06:55:02.388Z,230
2016-07-23T06:56:01.677Z,230
2016-07-23T06:57:02.375Z,230
2016-07-23T06:58:01.662Z,215
2016-07-23T06:59:02.363Z,210
2016-07-23T07:00:01.672Z,205
2016-07-23T07:01:02.347Z,200
2016-07-23T07:02:03.054Z,200
2016-07-23T07:03:01.636Z,200
2016-07-23T07:04:03.036Z,195
2016-07-23T07:05:02.332Z,195
2016-07-23T07:06:01.606Z,195
2016-07-23T07:07:01.604Z,200
2016-07-23T07:08:02.351Z,195
2016-07-23T07:09:02.298Z,195
2016-07-23T07:10:02.294Z,190
2016-07-23T07:11:01.574Z,190
2016-07-23T07:12:02.275Z,195
2016-07-23T07:13:00.853Z,195
2016-07-23T07:14:02.982Z,200
2016-07-23T07:15:01.552Z,200
2016-07-23T07:16:00.834Z,200
2016-07-23T07:17:02.243Z,205
2016-07-23T07:18:00.815Z,210
2016-07-23T07:19:01.577Z,215
2016-07-23T07:20:02.979Z,220
2016-07-23T07:21:02.936Z,225
2016-07-23T07:22:02.217Z,230
2016-07-23T07:23:02.206Z,240
2016-07-23T07:24:01.490Z,245
2016-07-23T07:25:02.187Z,255
2016-07-23T07:26:02.194Z,265
2016-07-23T07:27:01.471Z,275
2016-07-23T07:28:01.456Z,285
2016-07-23T07:29:01.453Z,300
2016-07-23T07:30:02.156Z,305
2016-07-23T07:31:00.736Z,320
2016-07-23T07:32:02.159Z,320
2016-07-23T07:33:01.432Z,330
2016-07-23T07:34:02.842Z,340
2016-07-23T07:35:03.539Z,405
2016-07-23T07:36:02.836Z,480
2016-07-23T07:37:02.814Z,560
2016-07-23T07:38:01.411Z,485
2016-07-23T07:39:01.406Z,460
2016-07-23T07:40:02.101Z,480
2016-07-23T07:41:01.383Z,530
2016-07-23T07:42:00.673Z,585
2016-07-23T07:43:01.371Z,645
2016-07-23T07:44:02.067Z,610
2016-07-23T07:45:02.063Z,595
2016-07-23T07:46:02.067Z,595
2016-07-23T07:47:02.051Z,565
2016-07-23T07:48:02.066Z,585
2016-07-23T07:49:02.752Z,585
2016-07-23T07:50:01.330Z,580
2016-07-23T07:51:02.034Z,540
2016-07-23T07:52:02.035Z,520
2016-07-23T07:53:02.028Z,560
2016-07-23T07:54:02.011Z,625
2016-07-23T07:55:02.015Z,475
2016-07-23T07:56:01.310Z,360
2016-07-23T07:57:01.289Z,455
2016-07-23T07:58:01.289Z,330
2016-07-23T07:59:01.990Z,275
2016-07-23T08:00:01.992Z,295
2016-07-23T08:01:01.286Z,385
2016-07-23T08:02:01.265Z,315
2016-07-23T08:03:01.979Z,270
2016-07-23T08:04:01.261Z,255
2016-07-23T08:05:01.960Z,275
2016-07-23T08:06:01.956Z,265
2016-07-23T08:07:01.251Z,250
2016-07-23T08:08:01.946Z,245
2016-07-23T08:09:02.042Z,255
2016-07-23T08:10:01.954Z,270
2016-07-23T08:11:00.523Z,290
2016-07-23T08:12:01.940Z,280
2016-07-23T08:13:01.210Z,275
2016-07-23T08:14:01.206Z,285
2016-07-23T08:15:02.629Z,305
2016-07-23T08:16:01.910Z,305
2016-07-23T08:17:01.900Z,405
2016-07-23T08:18:02.600Z,335
2016-07-23T08:19:02.593Z,370
2016-07-23T08:20:01.881Z,450
2016-07-23T08:21:01.180Z,420
2016-07-23T08:22:01.868Z,335
2016-07-23T08:23:01.157Z,320
2016-07-23T08:24:01.151Z,345
2016-07-23T08:25:01.146Z,395
2016-07-23T08:26:01.852Z,395
2016-07-23T08:27:01.842Z,380
2016-07-23T08:28:01.129Z,380
2016-07-23T08:29:01.221Z,325
2016-07-23T08:30:00.413Z,320
2016-07-23T08:31:01.820Z,345
2016-07-23T08:32:01.109Z,375
2016-07-23T08:33:01.816Z,425
2016-07-23T08:34:01.806Z,355
2016-07-23T08:35:00.391Z,340
2016-07-23T08:36:01.096Z,350
2016-07-23T08:37:00.374Z,385
2016-07-23T08:38:01.082Z,380
2016-07-23T08:39:02.487Z,385
2016-07-23T08:40:01.777Z,370
2016-07-23T08:41:01.667Z,405
2016-07-23T08:42:01.061Z,410
2016-07-23T08:43:01.775Z,405
2016-07-23T08:44:01.047Z,420
2016-07-23T08:45:01.749Z,390
2016-07-23T08:46:01.761Z,425
2016-07-23T08:47:01.785Z,400
2016-07-23T08:48:01.048Z,395
2016-07-23T08:49:01.734Z,380
2016-07-23T08:50:01.736Z,370
2016-07-23T08:51:00.318Z,360
2016-07-23T08:52:02.420Z,360
2016-07-23T08:53:01.015Z,355
2016-07-23T08:54:01.706Z,350
2016-07-23T08:55:00.990Z,345
2016-07-23T08:56:00.288Z,345
2016-07-23T08:57:00.983Z,340
2016-07-23T08:58:00.982Z,340
2016-07-23T08:59:00.974Z,340
2016-07-23T09:00:00.974Z,340
2016-07-23T09:01:00.255Z,345
2016-07-23T09:02:01.669Z,345
2016-07-23T09:03:01.660Z,350
2016-07-23T09:04:00.949Z,345
2016-07-23T09:05:01.647Z,345
2016-07-23T09:06:00.935Z,345
2016-07-23T09:07:00.233Z,345
2016-07-23T09:08:00.923Z,345
2016-07-23T09:09:01.637Z,345
2016-07-23T09:10:00.916Z,340
2016-07-23T09:11:01.619Z,340
2016-07-23T09:12:00.912Z,340
2016-07-23T09:13:01.612Z,335
2016-07-23T09:14:01.610Z,335
2016-07-23T09:15:00.914Z,330
2016-07-23T09:16:02.303Z,330
2016-07-23T09:17:00.906Z,335
2016-07-23T09:18:01.592Z,345
2016-07-23T09:19:02.992Z,340
2016-07-23T09:20:01.586Z,345
2016-07-23T09:21:01.570Z,345
2016-07-23T09:22:01.571Z,345
2016-07-23T09:23:02.266Z,340
2016-07-23T09:24:01.566Z,335
2016-07-23T09:25:00.839Z,325
2016-07-23T09:26:00.858Z,330
2016-07-23T09:27:01.553Z,310
2016-07-23T09:28:00.143Z,290
2016-07-23T09:29:00.824Z,280
2016-07-23T09:30:00.832Z,270
2016-07-23T09:31:00.110Z,270
2016-07-23T09:32:00.811Z,270
2016-07-23T09:33:02.235Z,265
2016-07-23T09:34:00.099Z,265
2016-07-23T09:35:01.515Z,265
2016-07-23T09:36:00.799Z,265
2016-07-23T09:37:00.789Z,265
2016-07-23T09:38:01.506Z,260
2016-07-23T09:39:00.787Z,260
2016-07-23T09:40:01.489Z,260
2016-07-23T09:41:00.775Z,260
2016-07-23T09:42:02.182Z,260
2016-07-23T09:43:02.890Z,260
2016-07-23T09:44:01.465Z,255
2016-07-23T09:45:02.165Z,250
2016-07-23T09:46:01.452Z,245
2016-07-23T09:47:02.155Z,240
2016-07-23T09:48:02.858Z,230
2016-07-23T09:49:01.444Z,225
2016-07-23T09:50:01.452Z,225
2016-07-23T09:51:01.431Z,220
2016-07-23T09:52:00.725Z,220
2016-07-23T09:53:01.427Z,215
2016-07-23T09:54:00.005Z,210
2016-07-23T09:55:00.728Z,210
2016-07-23T09:56:01.406Z,205
2016-07-23T09:57:02.109Z,205
2016-07-23T09:58:02.104Z,200
2016-07-23T09:59:02.101Z,200
2016-07-23T10:00:00.679Z,200
2016-07-23T10:01:00.691Z,200
2016-07-23T10:02:02.094Z,205
2016-07-23T10:03:01.369Z,205
2016-07-23T10:04:00.655Z,210
2016-07-23T10:04:59.944Z,220
2016-07-23T10:06:02.062Z,215
2016-07-23T10:07:02.055Z,220
2016-07-23T10:08:01.343Z,220
2016-07-23T10:09:01.336Z,220
2016-07-23T10:10:00.639Z,220
2016-07-23T10:11:02.025Z,220
2016-07-23T10:12:00.617Z,220
2016-07-23T10:13:01.340Z,215
2016-07-23T10:14:02.028Z,215
2016-07-23T10:15:02.023Z,215
2016-07-23T10:16:01.315Z,210
2016-07-23T10:17:00.587Z,205
2016-07-23T10:18:00.581Z,205
2016-07-23T10:19:01.281Z,210
2016-07-23T10:19:59.859Z,200
2016-07-23T10:21:01.278Z,205
2016-07-23T10:21:59.854Z,200
2016-07-23T10:23:00.553Z,205
2016-07-23T10:24:00.542Z,205
2016-07-23T10:25:01.255Z,205
2016-07-23T10:26:00.541Z,210
2016-07-23T10:27:01.938Z,210
2016-07-23T10:28:02.658Z,215
2016-07-23T10:28:59.814Z,215
2016-07-23T10:30:01.224Z,220
2016-07-23T10:31:00.505Z,225
2016-07-23T10:32:01.937Z,230
2016-07-23T10:33:01.216Z,230
2016-07-23T10:34:00.511Z,235
2016-07-23T10:35:01.194Z,240
2016-07-23T10:36:00.487Z,240
2016-07-23T10:37:01.202Z,240
2016-07-23T10:38:01.182Z,245
2016-07-23T10:38:59.758Z,245
2016-07-23T10:40:02.580Z,245
2016-07-23T10:41:01.569Z,245
2016-07-23T10:42:00.443Z,245
2016-07-23T10:43:00.457Z,245
2016-07-23T10:43:59.725Z,245
2016-07-23T10:45:01.145Z,245
2016-07-23T10:46:01.139Z,250
2016-07-23T10:47:00.417Z,250
2016-07-23T10:48:01.842Z,250
2016-07-23T10:48:59.699Z,250
2016-07-23T10:50:01.818Z,250
2016-07-23T10:51:01.817Z,255
2016-07-23T10:52:01.096Z,260
2016-07-23T10:52:59.676Z,265
2016-07-23T10:54:01.095Z,270
2016-07-23T10:54:59.668Z,280
2016-07-23T10:56:00.364Z,290
2016-07-23T10:57:01.788Z,300
2016-07-23T10:58:00.358Z,315
2016-07-23T10:58:59.648Z,330
2016-07-23T11:00:00.348Z,340
2016-07-23T11:01:02.464Z,345
2016-07-23T11:02:00.339Z,355
2016-07-23T11:03:01.752Z,355
2016-07-23T11:04:00.325Z,360
2016-07-23T11:05:01.032Z,365
2016-07-23T11:06:00.329Z,370
2016-07-23T11:07:01.024Z,370
2016-07-23T11:08:01.012Z,370
2016-07-23T11:09:01.010Z,370
2016-07-23T11:10:00.291Z,385
2016-07-23T11:11:00.296Z,400
2016-07-23T11:11:59.574Z,410
2016-07-23T11:13:01.694Z,435
2016-07-23T11:14:00.979Z,455
2016-07-23T11:15:00.977Z,485
2016-07-23T11:16:00.265Z,490
2016-07-23T11:17:01.679Z,475
2016-07-23T11:18:01.682Z,445
2016-07-23T11:19:01.667Z,410
2016-07-23T11:20:00.249Z,385
2016-07-23T11:21:00.950Z,365
2016-07-23T11:22:00.237Z,355
2016-07-23T11:22:59.519Z,340
2016-07-23T11:24:00.941Z,330
2016-07-23T11:25:01.633Z,325
2016-07-23T11:26:00.922Z,320
2016-07-23T11:27:00.914Z,315
2016-07-23T11:28:00.917Z,305
2016-07-23T11:28:59.489Z,300
2016-07-23T11:30:00.903Z,295
2016-07-23T11:31:00.902Z,295
2016-07-23T11:32:01.010Z,290
2016-07-23T11:32:59.476Z,290
2016-07-23T11:34:00.173Z,290
2016-07-23T11:35:00.169Z,285
2016-07-23T11:36:01.580Z,285
2016-07-23T11:37:00.865Z,280
2016-07-23T11:37:59.439Z,275
2016-07-23T11:39:00.149Z,275
2016-07-23T11:40:01.558Z,270
2016-07-23T11:41:00.847Z,270
2016-07-23T11:42:00.835Z,265
2016-07-23T11:43:00.836Z,265
2016-07-23T11:44:00.826Z,260
2016-07-23T11:45:00.821Z,260
2016-07-23T11:45:59.413Z,260
2016-07-23T11:47:00.809Z,255
2016-07-23T11:48:01.512Z,250
2016-07-23T11:49:00.797Z,250
2016-07-23T11:50:00.803Z,245
2016-07-23T11:50:59.398Z,245
2016-07-23T11:52:00.792Z,245
2016-07-23T11:53:01.489Z,245
2016-07-23T11:54:00.788Z,240
2016-07-23T11:55:00.057Z,240
2016-07-23T11:55:59.357Z,240
2016-07-23T11:57:00.765Z,235
2016-07-23T11:58:00.046Z,235
2016-07-23T11:59:00.048Z,235
2016-07-23T12:00:00.749Z,235
2016-07-23T12:01:00.037Z,230
2016-07-23T12:02:00.738Z,225
2016-07-23T12:03:00.728Z,225
2016-07-23T12:04:00.021Z,220
2016-07-23T12:05:00.009Z,220
2016-07-23T12:05:59.297Z,215
2016-07-23T12:07:00.709Z,215
2016-07-23T12:07:59.995Z,210
2016-07-23T12:09:00.694Z,210
2016-07-23T12:09:59.999Z,210
2016-07-23T12:11:00.677Z,210
2016-07-23T12:12:01.403Z,210
2016-07-23T12:12:59.967Z,205
2016-07-23T12:14:01.378Z,205
2016-07-23T12:15:01.368Z,205
2016-07-23T12:16:00.659Z,205
2016-07-23T12:16:59.947Z,205
2016-07-23T12:17:59.234Z,205
2016-07-23T12:18:59.227Z,205
2016-07-23T12:20:00.632Z,205
2016-07-23T12:20:59.923Z,205
2016-07-23T12:21:59.914Z,205
2016-07-23T12:23:00.622Z,205
2016-07-23T12:23:59.198Z,200
2016-07-23T12:24:59.902Z,200
2016-07-23T12:25:59.893Z,200
2016-07-23T12:26:59.893Z,200
2016-07-23T12:27:59.890Z,205
2016-07-23T12:29:00.581Z,200
2016-07-23T12:30:00.586Z,200
2016-07-23T12:31:00.586Z,200
2016-07-23T12:31:59.870Z,205
2016-07-23T12:33:00.574Z,205
2016-07-23T12:34:01.988Z,205
2016-07-23T12:35:00.544Z,205
2016-07-23T12:35:59.120Z,210
2016-07-23T12:37:00.539Z,210
2016-07-23T12:38:00.526Z,210
2016-07-23T12:39:01.232Z,215
2016-07-23T12:39:59.814Z,215
2016-07-23T12:40:59.816Z,215
2016-07-23T12:42:01.221Z,220
2016-07-23T12:42:59.815Z,225
2016-07-23T12:43:59.787Z,220
2016-07-23T12:44:59.796Z,230
2016-07-23T12:45:59.070Z,225
2016-07-23T12:46:59.770Z,225
2016-07-23T12:47:59.771Z,230
2016-07-23T12:49:01.191Z,230
2016-07-23T12:49:59.754Z,230
2016-07-23T12:51:01.178Z,230
2016-07-23T12:51:59.758Z,235
2016-07-23T12:52:59.054Z,240
2016-07-23T12:54:01.154Z,240
2016-07-23T12:55:00.439Z,240
2016-07-23T12:55:59.734Z,245
2016-07-23T12:56:59.010Z,245
2016-07-23T12:58:00.425Z,245
2016-07-23T12:59:01.126Z,245
2016-07-23T12:59:59.705Z,250
2016-07-23T13:00:58.983Z,255
2016-07-23T13:01:58.986Z,255
2016-07-23T13:03:01.098Z,255
2016-07-23T13:04:00.393Z,265
2016-07-23T13:04:59.681Z,270
2016-07-23T13:06:01.084Z,275
2016-07-23T13:07:00.375Z,275
2016-07-23T13:07:59.659Z,275
2016-07-23T13:08:59.654Z,280
2016-07-23T13:10:00.361Z,280
2016-07-23T13:10:58.942Z,280
2016-07-23T13:11:58.927Z,275
2016-07-23T13:13:00.344Z,270
2016-07-23T13:14:00.334Z,275
2016-07-23T13:15:00.325Z,285
2016-07-23T13:15:58.909Z,300
2016-07-23T13:17:00.314Z,310
2016-07-23T13:17:58.906Z,310
2016-07-23T13:18:59.600Z,315
2016-07-23T13:20:01.007Z,320
2016-07-23T13:20:59.591Z,320
2016-07-23T13:22:00.295Z,320
2016-07-23T13:22:59.576Z,320
2016-07-23T13:23:59.572Z,320
2016-07-23T13:25:01.012Z,300
2016-07-23T13:26:00.263Z,295
2016-07-23T13:26:59.553Z,305
2016-07-23T13:27:59.564Z,305
2016-07-23T13:29:00.960Z,315
2016-07-23T13:30:00.251Z,315
2016-07-23T13:31:00.938Z,320
2016-07-23T13:32:00.946Z,320
2016-07-23T13:33:00.225Z,320
2016-07-23T13:33:59.515Z,320
2016-07-23T13:34:58.807Z,325
2016-07-23T13:35:59.509Z,325
2016-07-23T13:37:00.906Z,330
2016-07-23T13:37:59.499Z,330
2016-07-23T13:39:01.620Z,320
2016-07-23T13:39:58.782Z,315
2016-07-23T13:41:00.926Z,315
2016-07-23T13:42:00.175Z,305
2016-07-23T13:43:00.176Z,300
2016-07-23T13:43:59.461Z,300
2016-07-23T13:45:00.162Z,300
2016-07-23T13:46:00.161Z,290
2016-07-23T13:46:59.456Z,280
2016-07-23T13:47:59.440Z,290
2016-07-23T13:48:59.434Z,305
2016-07-23T13:50:00.146Z,315
2016-07-23T13:51:00.136Z,320
2016-07-23T13:51:59.425Z,320
2016-07-23T13:53:00.832Z,320
2016-07-23T13:54:00.120Z,315
2016-07-23T13:54:59.406Z,315
2016-07-23T13:55:59.420Z,315
2016-07-23T13:57:00.371Z,310
2016-07-23T13:57:58.679Z,315
2016-07-23T13:59:00.099Z,315
2016-07-23T14:00:00.799Z,320
2016-07-23T14:01:00.083Z,325
2016-07-23T14:02:00.908Z,330
2016-07-23T14:03:00.779Z,330
2016-07-23T14:04:00.080Z,335
2016-07-23T14:04:58.650Z,340
2016-07-23T14:06:00.065Z,350